sensor_id;sensor_type;location;lat;lon;timestamp;pressure;altitude;pressure_sealevel;temperature
42673;BMP280;28284;46.514;30.724;2023-10-08T00:01:14;100347.00;;;18.90
42673;BMP280;28284;46.514;30.724;2023-10-08T00:03:41;100350.63;;;18.87
42673;BMP280;28284;46.514;30.724;2023-10-08T00:06:13;100337.88;;;18.80
42673;BMP280;28284;46.514;30.724;2023-10-08T00:08:39;100337.69;;;18.75
42673;BMP280;28284;46.514;30.724;2023-10-08T00:11:05;100337.47;;;18.70
42673;BMP280;28284;46.514;30.724;2023-10-08T00:13:35;100335.59;;;18.67
42673;BMP280;28284;46.514;30.724;2023-10-08T00:16:08;100334.47;;;18.64
42673;BMP280;28284;46.514;30.724;2023-10-08T00:18:37;100338.41;;;18.63
42673;BMP280;28284;46.514;30.724;2023-10-08T00:21:03;100335.38;;;18.61
42673;BMP280;28284;46.514;30.724;2023-10-08T00:23:38;100323.28;;;18.59
42673;BMP280;28284;46.514;30.724;2023-10-08T00:26:16;100326.47;;;18.57
42673;BMP280;28284;46.514;30.724;2023-10-08T00:28:45;100323.72;;;18.57
42673;BMP280;28284;46.514;30.724;2023-10-08T00:31:16;100324.84;;;18.60
42673;BMP280;28284;46.514;30.724;2023-10-08T00:33:42;100312.66;;;18.61
42673;BMP280;28284;46.514;30.724;2023-10-08T00:36:09;100316.47;;;18.63
42673;BMP280;28284;46.514;30.724;2023-10-08T00:38:45;100315.28;;;18.64
42673;BMP280;28284;46.514;30.724;2023-10-08T00:41:13;100312.53;;;18.64
42673;BMP280;28284;46.514;30.724;2023-10-08T00:43:42;100315.63;;;18.66
42673;BMP280;28284;46.514;30.724;2023-10-08T00:46:10;100319.88;;;18.67
42673;BMP280;28284;46.514;30.724;2023-10-08T00:48:56;100311.78;;;18.64
42673;BMP280;28284;46.514;30.724;2023-10-08T00:51:25;100314.63;;;18.60
42673;BMP280;28284;46.514;30.724;2023-10-08T00:53:52;100308.06;;;18.58
42673;BMP280;28284;46.514;30.724;2023-10-08T00:56:18;100304.19;;;18.55
42673;BMP280;28284;46.514;30.724;2023-10-08T00:58:44;100305.38;;;18.54
42673;BMP280;28284;46.514;30.724;2023-10-08T01:01:14;100299.06;;;18.57
42673;BMP280;28284;46.514;30.724;2023-10-08T01:03:41;100303.66;;;18.60
42673;BMP280;28284;46.514;30.724;2023-10-08T01:06:10;100298.06;;;18.64
42673;BMP280;28284;46.514;30.724;2023-10-08T01:08:36;100290.59;;;18.64
42673;BMP280;28284;46.514;30.724;2023-10-08T01:14:04;100291.25;;;18.68
42673;BMP280;28284;46.514;30.724;2023-10-08T01:16:32;100289.28;;;18.69
42673;BMP280;28284;46.514;30.724;2023-10-08T01:18:59;100288.19;;;18.66
42673;BMP280;28284;46.514;30.724;2023-10-08T01:21:28;100291.72;;;18.67
42673;BMP280;28284;46.514;30.724;2023-10-08T01:24:00;100289.69;;;18.67
42673;BMP280;28284;46.514;30.724;2023-10-08T01:26:26;100284.34;;;18.64
42673;BMP280;28284;46.514;30.724;2023-10-08T01:28:55;100277.41;;;18.59
42673;BMP280;28284;46.514;30.724;2023-10-08T01:31:20;100279.84;;;18.57
42673;BMP280;28284;46.514;30.724;2023-10-08T01:33:46;100277.97;;;18.54
42673;BMP280;28284;46.514;30.724;2023-10-08T01:36:15;100270.19;;;18.53
42673;BMP280;28284;46.514;30.724;2023-10-08T01:38:40;100264.69;;;18.53
42673;BMP280;28284;46.514;30.724;2023-10-08T01:41:13;100261.19;;;18.52
42673;BMP280;28284;46.514;30.724;2023-10-08T01:43:45;100272.94;;;18.53
42673;BMP280;28284;46.514;30.724;2023-10-08T01:46:10;100272.94;;;18.53
42673;BMP280;28284;46.514;30.724;2023-10-08T01:48:37;100263.94;;;18.52
42673;BMP280;28284;46.514;30.724;2023-10-08T01:51:02;100269.44;;;18.52
42673;BMP280;28284;46.514;30.724;2023-10-08T01:53:33;100264.25;;;18.54
42673;BMP280;28284;46.514;30.724;2023-10-08T01:55:59;100265.81;;;18.55
42673;BMP280;28284;46.514;30.724;2023-10-08T01:58:24;100264.59;;;18.56
42673;BMP280;28284;46.514;30.724;2023-10-08T02:00:49;100258.78;;;18.54
42673;BMP280;28284;46.514;30.724;2023-10-08T02:03:17;100253.72;;;18.53
42673;BMP280;28284;46.514;30.724;2023-10-08T02:05:47;100261.63;;;18.51
42673;BMP280;28284;46.514;30.724;2023-10-08T02:08:14;100259.31;;;18.49
42673;BMP280;28284;46.514;30.724;2023-10-08T02:10:40;100259.31;;;18.49
42673;BMP280;28284;46.514;30.724;2023-10-08T02:13:09;100258.56;;;18.49
42673;BMP280;28284;46.514;30.724;2023-10-08T02:15:45;100253.53;;;18.47
42673;BMP280;28284;46.514;30.724;2023-10-08T02:18:10;100246.59;;;18.43
42673;BMP280;28284;46.514;30.724;2023-10-08T02:20:36;100249.00;;;18.41
42673;BMP280;28284;46.514;30.724;2023-10-08T02:23:01;100250.69;;;18.38
42673;BMP280;28284;46.514;30.724;2023-10-08T02:25:27;100247.56;;;18.36
42673;BMP280;28284;46.514;30.724;2023-10-08T02:27:52;100244.50;;;18.34
42673;BMP280;28284;46.514;30.724;2023-10-08T02:30:18;100241.56;;;18.29
42673;BMP280;28284;46.514;30.724;2023-10-08T02:32:43;100240.13;;;18.24
42673;BMP280;28284;46.514;30.724;2023-10-08T02:35:09;100232.03;;;18.21
42673;BMP280;28284;46.514;30.724;2023-10-08T02:37:38;100236.72;;;18.20
42673;BMP280;28284;46.514;30.724;2023-10-08T02:40:08;100229.69;;;18.19
42673;BMP280;28284;46.514;30.724;2023-10-08T02:42:52;100232.09;;;18.17
42673;BMP280;28284;46.514;30.724;2023-10-08T02:45:23;100226.28;;;18.15
42673;BMP280;28284;46.514;30.724;2023-10-08T02:47:50;100223.22;;;18.13
42673;BMP280;28284;46.514;30.724;2023-10-08T02:50:17;100222.41;;;18.13
42673;BMP280;28284;46.514;30.724;2023-10-08T02:52:43;100227.91;;;18.13
42673;BMP280;28284;46.514;30.724;2023-10-08T02:55:09;100221.69;;;18.12
42673;BMP280;28284;46.514;30.724;2023-10-08T02:57:48;100211.94;;;18.11
42673;BMP280;28284;46.514;30.724;2023-10-08T03:00:15;100212.34;;;18.10
42673;BMP280;28284;46.514;30.724;2023-10-08T03:02:44;100217.16;;;18.06
42673;BMP280;28284;46.514;30.724;2023-10-08T03:05:11;100213.78;;;18.02
42673;BMP280;28284;46.514;30.724;2023-10-08T03:07:38;100217.81;;;17.98
42673;BMP280;28284;46.514;30.724;2023-10-08T03:10:05;100214.41;;;17.94
42673;BMP280;28284;46.514;30.724;2023-10-08T03:12:31;100212.53;;;17.91
42673;BMP280;28284;46.514;30.724;2023-10-08T03:14:57;100205.97;;;17.88
42673;BMP280;28284;46.514;30.724;2023-10-08T03:17:29;100202.88;;;17.86
42673;BMP280;28284;46.514;30.724;2023-10-08T03:19:55;100195.88;;;17.85
42673;BMP280;28284;46.514;30.724;2023-10-08T03:22:44;100195.13;;;17.85
42673;BMP280;28284;46.514;30.724;2023-10-08T03:25:11;100193.56;;;17.84
42673;BMP280;28284;46.514;30.724;2023-10-08T03:27:42;100194.66;;;17.86
42673;BMP280;28284;46.514;30.724;2023-10-08T03:30:08;100194.22;;;17.88
42673;BMP280;28284;46.514;30.724;2023-10-08T03:32:39;100193.34;;;17.91
42673;BMP280;28284;46.514;30.724;2023-10-08T03:35:06;100190.06;;;17.96
42673;BMP280;28284;46.514;30.724;2023-10-08T03:37:35;100180.13;;;18.02
42673;BMP280;28284;46.514;30.724;2023-10-08T03:40:06;100185.72;;;18.10
42673;BMP280;28284;46.514;30.724;2023-10-08T03:42:47;100176.97;;;18.15
42673;BMP280;28284;46.514;30.724;2023-10-08T03:45:14;100181.44;;;18.22
42673;BMP280;28284;46.514;30.724;2023-10-08T03:47:47;100171.47;;;18.28
42673;BMP280;28284;46.514;30.724;2023-10-08T03:50:21;100180.69;;;18.34
42673;BMP280;28284;46.514;30.724;2023-10-08T03:52:57;100168.28;;;18.42
42673;BMP280;28284;46.514;30.724;2023-10-08T03:55:23;100165.22;;;18.52
42673;BMP280;28284;46.514;30.724;2023-10-08T03:57:52;100164.66;;;18.57
42673;BMP280;28284;46.514;30.724;2023-10-08T04:00:22;100163.66;;;18.64
42673;BMP280;28284;46.514;30.724;2023-10-08T04:02:54;100165.72;;;18.72
42673;BMP280;28284;46.514;30.724;2023-10-08T04:05:23;100168.56;;;18.81
42673;BMP280;28284;46.514;30.724;2023-10-08T04:07:57;100154.94;;;18.90
42673;BMP280;28284;46.514;30.724;2023-10-08T04:10:52;100164.22;;;19.05
42673;BMP280;28284;46.514;30.724;2023-10-08T04:13:33;100159.31;;;19.21
42673;BMP280;28284;46.514;30.724;2023-10-08T04:15:58;100158.69;;;19.38
42673;BMP280;28284;46.514;30.724;2023-10-08T04:18:24;100153.28;;;19.47
42673;BMP280;28284;46.514;30.724;2023-10-08T04:20:49;100145.34;;;19.49
42673;BMP280;28284;46.514;30.724;2023-10-08T04:23:30;100148.09;;;19.49
42673;BMP280;28284;46.514;30.724;2023-10-08T04:25:55;100145.34;;;19.49
42673;BMP280;28284;46.514;30.724;2023-10-08T04:28:21;100130.53;;;19.47
42673;BMP280;28284;46.514;30.724;2023-10-08T04:30:46;100139.53;;;19.47
42673;BMP280;28284;46.514;30.724;2023-10-08T04:33:15;100150.38;;;19.51
42673;BMP280;28284;46.514;30.724;2023-10-08T04:35:42;100146.72;;;19.54
42673;BMP280;28284;46.514;30.724;2023-10-08T04:38:21;100140.22;;;19.60
42673;BMP280;28284;46.514;30.724;2023-10-08T04:40:49;100143.59;;;19.64
42673;BMP280;28284;46.514;30.724;2023-10-08T04:43:25;100148.50;;;19.69
42673;BMP280;28284;46.514;30.724;2023-10-08T04:45:51;100140.16;;;19.73
42673;BMP280;28284;46.514;30.724;2023-10-08T04:48:16;100145.47;;;19.76
42673;BMP280;28284;46.514;30.724;2023-10-08T04:50:46;100146.56;;;19.79
42673;BMP280;28284;46.514;30.724;2023-10-08T04:53:11;100145.34;;;19.80
42673;BMP280;28284;46.514;30.724;2023-10-08T04:55:41;100149.22;;;19.82
42673;BMP280;28284;46.514;30.724;2023-10-08T04:58:13;100133.03;;;19.84
42673;BMP280;28284;46.514;30.724;2023-10-08T05:00:46;100135.00;;;19.84
42673;BMP280;28284;46.514;30.724;2023-10-08T05:03:24;100127.84;;;19.86
42673;BMP280;28284;46.514;30.724;2023-10-08T05:05:57;100129.81;;;19.86
42673;BMP280;28284;46.514;30.724;2023-10-08T05:08:42;100128.59;;;19.87
42673;BMP280;28284;46.514;30.724;2023-10-08T05:11:23;100126.94;;;19.89
42673;BMP280;28284;46.514;30.724;2023-10-08T05:14:14;100129.72;;;19.98
42673;BMP280;28284;46.514;30.724;2023-10-08T05:16:58;100125.78;;;19.99
42673;BMP280;28284;46.514;30.724;2023-10-08T05:19:37;100134.31;;;20.01
42673;BMP280;28284;46.514;30.724;2023-10-08T05:22:14;100136.13;;;20.04
42673;BMP280;28284;46.514;30.724;2023-10-08T05:24:55;100134.94;;;20.05
42673;BMP280;28284;46.514;30.724;2023-10-08T05:27:51;100133.13;;;20.11
42673;BMP280;28284;46.514;30.724;2023-10-08T05:30:17;100122.44;;;20.13
42673;BMP280;28284;46.514;30.724;2023-10-08T05:32:57;100119.69;;;20.13
42673;BMP280;28284;46.514;30.724;2023-10-08T05:35:38;100121.22;;;20.14
42673;BMP280;28284;46.514;30.724;2023-10-08T05:38:03;100114.19;;;20.13
42673;BMP280;28284;46.514;30.724;2023-10-08T05:40:38;100111.44;;;20.13
42673;BMP280;28284;46.514;30.724;2023-10-08T05:43:22;100109.16;;;20.11
42673;BMP280;28284;46.514;30.724;2023-10-08T05:46:20;100104.88;;;20.10
42673;BMP280;28284;46.514;30.724;2023-10-08T05:51:36;100107.31;;;20.08
42673;BMP280;28284;46.514;30.724;2023-10-08T05:57:00;100112.09;;;20.26
42673;BMP280;28284;46.514;30.724;2023-10-08T05:59:38;100108.25;;;20.32
42673;BMP280;28284;46.514;30.724;2023-10-08T06:02:17;100103.56;;;20.42
42673;BMP280;28284;46.514;30.724;2023-10-08T06:04:58;100113.38;;;20.52
42673;BMP280;28284;46.514;30.724;2023-10-08T06:07:39;100114.00;;;20.64
42673;BMP280;28284;46.514;30.724;2023-10-08T06:13:01;100126.22;;;20.90
42673;BMP280;28284;46.514;30.724;2023-10-08T06:15:35;100124.84;;;20.95
42673;BMP280;28284;46.514;30.724;2023-10-08T06:18:19;100130.81;;;21.02
42673;BMP280;28284;46.514;30.724;2023-10-08T06:20:46;100121.63;;;21.05
42673;BMP280;28284;46.514;30.724;2023-10-08T06:23:15;100127.59;;;21.04
42673;BMP280;28284;46.514;30.724;2023-10-08T06:25:46;100127.91;;;20.97
42673;BMP280;28284;46.514;30.724;2023-10-08T06:28:16;100123.19;;;20.97
42673;BMP280;28284;46.514;30.724;2023-10-08T06:30:47;100125.31;;;21.02
42673;BMP280;28284;46.514;30.724;2023-10-08T06:33:13;100119.81;;;21.11
42673;BMP280;28284;46.514;30.724;2023-10-08T06:35:39;100121.00;;;21.19
42673;BMP280;28284;46.514;30.724;2023-10-08T06:38:09;100123.00;;;21.27
42673;BMP280;28284;46.514;30.724;2023-10-08T06:40:37;100124.50;;;21.37
42673;BMP280;28284;46.514;30.724;2023-10-08T06:43:03;100132.88;;;21.52
42673;BMP280;28284;46.514;30.724;2023-10-08T06:45:40;100124.41;;;21.64
42673;BMP280;28284;46.514;30.724;2023-10-08T06:48:06;100121.28;;;21.80
42673;BMP280;28284;46.514;30.724;2023-10-08T06:50:32;100124.59;;;21.93
42673;BMP280;28284;46.514;30.724;2023-10-08T06:53:01;100120.41;;;22.06
42673;BMP280;28284;46.514;30.724;2023-10-08T06:55:31;100125.38;;;22.17
42673;BMP280;28284;46.514;30.724;2023-10-08T06:57:58;100121.44;;;22.18
42673;BMP280;28284;46.514;30.724;2023-10-08T07:00:25;100114.50;;;22.22
42673;BMP280;28284;46.514;30.724;2023-10-08T07:03:11;100104.16;;;22.32
42673;BMP280;28284;46.514;30.724;2023-10-08T07:05:40;100094.28;;;22.39
42673;BMP280;28284;46.514;30.724;2023-10-08T07:08:10;100116.63;;;22.41
42673;BMP280;28284;46.514;30.724;2023-10-08T07:10:38;100109.34;;;22.53
42673;BMP280;28284;46.514;30.724;2023-10-08T07:13:03;100106.94;;;22.69
42673;BMP280;28284;46.514;30.724;2023-10-08T07:15:33;100107.41;;;22.82
42673;BMP280;28284;46.514;30.724;2023-10-08T07:17:58;100117.63;;;22.91
42673;BMP280;28284;46.514;30.724;2023-10-08T07:20:33;100112.97;;;22.96
42673;BMP280;28284;46.514;30.724;2023-10-08T07:23:03;100113.66;;;23.06
42673;BMP280;28284;46.514;30.724;2023-10-08T07:25:34;100102.03;;;23.16
42673;BMP280;28284;46.514;30.724;2023-10-08T07:28:03;100103.19;;;23.24
42673;BMP280;28284;46.514;30.724;2023-10-08T07:30:40;100089.25;;;23.33
42673;BMP280;28284;46.514;30.724;2023-10-08T07:33:09;100096.88;;;23.38
42673;BMP280;28284;46.514;30.724;2023-10-08T07:35:42;100085.31;;;23.54
42673;BMP280;28284;46.514;30.724;2023-10-08T07:38:16;100080.50;;;23.69
42673;BMP280;28284;46.514;30.724;2023-10-08T07:40:41;100081.63;;;23.77
42673;BMP280;28284;46.514;30.724;2023-10-08T07:43:07;100087.06;;;23.86
42673;BMP280;28284;46.514;30.724;2023-10-08T07:45:33;100080.56;;;23.89
42673;BMP280;28284;46.514;30.724;2023-10-08T07:48:00;100082.84;;;23.90
42673;BMP280;28284;46.514;30.724;2023-10-08T07:50:26;100080.00;;;23.85
42673;BMP280;28284;46.514;30.724;2023-10-08T07:52:54;100077.91;;;23.80
42673;BMP280;28284;46.514;30.724;2023-10-08T07:55:21;100063.50;;;23.76
42673;BMP280;28284;46.514;30.724;2023-10-08T07:57:47;100073.81;;;23.75
42673;BMP280;28284;46.514;30.724;2023-10-08T08:00:13;100070.56;;;23.77
42673;BMP280;28284;46.514;30.724;2023-10-08T08:02:48;100058.84;;;23.82
42673;BMP280;28284;46.514;30.724;2023-10-08T08:05:14;100059.13;;;23.84
42673;BMP280;28284;46.514;30.724;2023-10-08T08:07:42;100045.31;;;23.84
42673;BMP280;28284;46.514;30.724;2023-10-08T08:10:08;100039.25;;;23.85
42673;BMP280;28284;46.514;30.724;2023-10-08T08:12:36;100051.13;;;23.91
42673;BMP280;28284;46.514;30.724;2023-10-08T08:15:02;100049.91;;;23.92
42673;BMP280;28284;46.514;30.724;2023-10-08T08:17:39;100051.91;;;23.92
42673;BMP280;28284;46.514;30.724;2023-10-08T08:20:05;100067.06;;;23.96
42673;BMP280;28284;46.514;30.724;2023-10-08T08:22:42;100067.84;;;23.97
42673;BMP280;28284;46.514;30.724;2023-10-08T08:25:12;100063.28;;;23.94
42673;BMP280;28284;46.514;30.724;2023-10-08T08:27:41;100060.41;;;23.88
42673;BMP280;28284;46.514;30.724;2023-10-08T08:30:11;100072.25;;;23.89
42673;BMP280;28284;46.514;30.724;2023-10-08T08:32:40;100077.84;;;23.94
42673;BMP280;28284;46.514;30.724;2023-10-08T08:35:08;100080.88;;;23.96
42673;BMP280;28284;46.514;30.724;2023-10-08T08:37:37;100088.75;;;23.98
42673;BMP280;28284;46.514;30.724;2023-10-08T08:40:06;100100.34;;;24.02
42673;BMP280;28284;46.514;30.724;2023-10-08T08:42:34;100096.22;;;24.11
42673;BMP280;28284;46.514;30.724;2023-10-08T08:45:03;100101.63;;;24.20
42673;BMP280;28284;46.514;30.724;2023-10-08T08:47:34;100103.06;;;24.36
42673;BMP280;28284;46.514;30.724;2023-10-08T08:50:00;100110.81;;;24.52
42673;BMP280;28284;46.514;30.724;2023-10-08T08:52:33;100099.91;;;24.68
42673;BMP280;28284;46.514;30.724;2023-10-08T08:54:58;100103.09;;;24.86
42673;BMP280;28284;46.514;30.724;2023-10-08T08:57:25;100106.78;;;25.03
42673;BMP280;28284;46.514;30.724;2023-10-08T08:59:57;100104.47;;;25.27
42673;BMP280;28284;46.514;30.724;2023-10-08T09:02:24;100098.59;;;25.45
42673;BMP280;28284;46.514;30.724;2023-10-08T09:04:50;100099.25;;;25.70
42673;BMP280;28284;46.514;30.724;2023-10-08T09:07:19;100101.13;;;25.90
42673;BMP280;28284;46.514;30.724;2023-10-08T09:09:47;100107.00;;;26.08
42673;BMP280;28284;46.514;30.724;2023-10-08T09:12:18;100109.81;;;26.19
42673;BMP280;28284;46.514;30.724;2023-10-08T09:14:43;100101.84;;;26.37
42673;BMP280;28284;46.514;30.724;2023-10-08T09:17:10;100116.44;;;26.38
42673;BMP280;28284;46.514;30.724;2023-10-08T09:19:35;100148.97;;;26.26
42673;BMP280;28284;46.514;30.724;2023-10-08T09:24:29;100153.72;;;25.37
42673;BMP280;28284;46.514;30.724;2023-10-08T09:27:00;100175.13;;;24.86
42673;BMP280;28284;46.514;30.724;2023-10-08T09:29:27;100180.56;;;24.36
42673;BMP280;28284;46.514;30.724;2023-10-08T09:31:56;100168.06;;;23.57
42673;BMP280;28284;46.514;30.724;2023-10-08T09:34:24;100179.59;;;23.13
42673;BMP280;28284;46.514;30.724;2023-10-08T09:36:50;100147.00;;;22.65
42673;BMP280;28284;46.514;30.724;2023-10-08T09:39:18;100175.47;;;22.24
42673;BMP280;28284;46.514;30.724;2023-10-08T09:41:49;100171.09;;;22.18
42673;BMP280;28284;46.514;30.724;2023-10-08T09:44:15;100201.50;;;22.23
42673;BMP280;28284;46.514;30.724;2023-10-08T09:46:40;100199.91;;;22.08
42673;BMP280;28284;46.514;30.724;2023-10-08T09:49:07;100182.34;;;21.46
42673;BMP280;28284;46.514;30.724;2023-10-08T09:51:35;100239.25;;;21.05
42673;BMP280;28284;46.514;30.724;2023-10-08T09:54:15;100234.38;;;20.91
42673;BMP280;28284;46.514;30.724;2023-10-08T09:56:43;100241.50;;;20.70
42673;BMP280;28284;46.514;30.724;2023-10-08T09:59:10;100253.00;;;20.39
42673;BMP280;28284;46.514;30.724;2023-10-08T10:01:38;100234.41;;;20.12
42673;BMP280;28284;46.514;30.724;2023-10-08T10:04:06;100248.16;;;19.82
42673;BMP280;28284;46.514;30.724;2023-10-08T10:06:31;100255.00;;;19.44
42673;BMP280;28284;46.514;30.724;2023-10-08T10:08:57;100268.66;;;19.35
42673;BMP280;28284;46.514;30.724;2023-10-08T10:11:31;100271.44;;;19.23
42673;BMP280;28284;46.514;30.724;2023-10-08T10:13:58;100291.25;;;19.05
42673;BMP280;28284;46.514;30.724;2023-10-08T10:16:25;100289.72;;;19.04
42673;BMP280;28284;46.514;30.724;2023-10-08T10:18:54;100296.97;;;18.61
42673;BMP280;28284;46.514;30.724;2023-10-08T10:21:31;100285.53;;;18.38
42673;BMP280;28284;46.514;30.724;2023-10-08T10:23:58;100279.44;;;18.06
42673;BMP280;28284;46.514;30.724;2023-10-08T10:26:35;100301.44;;;18.02
42673;BMP280;28284;46.514;30.724;2023-10-08T10:34:12;100332.22;;;17.49
42673;BMP280;28284;46.514;30.724;2023-10-08T10:36:38;100329.41;;;17.37
42673;BMP280;28284;46.514;30.724;2023-10-08T10:39:07;100336.91;;;17.17
42673;BMP280;28284;46.514;30.724;2023-10-08T10:41:41;100344.78;;;16.99
42673;BMP280;28284;46.514;30.724;2023-10-08T10:44:07;100342.03;;;16.99
42673;BMP280;28284;46.514;30.724;2023-10-08T10:46:33;100357.50;;;16.90
42673;BMP280;28284;46.514;30.724;2023-10-08T10:49:06;100350.97;;;16.84
42673;BMP280;28284;46.514;30.724;2023-10-08T10:51:43;100357.22;;;16.84
42673;BMP280;28284;46.514;30.724;2023-10-08T10:54:09;100357.50;;;16.71
42673;BMP280;28284;46.514;30.724;2023-10-08T10:56:37;100366.91;;;16.70
42673;BMP280;28284;46.514;30.724;2023-10-08T10:59:10;100387.88;;;16.57
42673;BMP280;28284;46.514;30.724;2023-10-08T11:01:49;100385.00;;;16.44
42673;BMP280;28284;46.514;30.724;2023-10-08T11:04:19;100393.81;;;16.32
42673;BMP280;28284;46.514;30.724;2023-10-08T11:06:54;100403.84;;;16.16
42673;BMP280;28284;46.514;30.724;2023-10-08T11:09:23;100411.94;;;16.00
42673;BMP280;28284;46.514;30.724;2023-10-08T11:12:06;100394.28;;;15.85
42673;BMP280;28284;46.514;30.724;2023-10-08T11:14:42;100404.19;;;15.76
42673;BMP280;28284;46.514;30.724;2023-10-08T11:20:02;100412.94;;;15.37
42673;BMP280;28284;46.514;30.724;2023-10-08T11:22:41;100428.75;;;15.23
42673;BMP280;28284;46.514;30.724;2023-10-08T11:25:20;100417.22;;;15.12
42673;BMP280;28284;46.514;30.724;2023-10-08T11:27:48;100424.72;;;14.75
42673;BMP280;28284;46.514;30.724;2023-10-08T11:30:13;100414.19;;;14.73
42673;BMP280;28284;46.514;30.724;2023-10-08T11:32:42;100417.91;;;14.57
42673;BMP280;28284;46.514;30.724;2023-10-08T11:35:14;100415.16;;;14.57
42673;BMP280;28284;46.514;30.724;2023-10-08T11:37:45;100419.78;;;14.60
42673;BMP280;28284;46.514;30.724;2023-10-08T11:40:10;100425.66;;;14.58
42673;BMP280;28284;46.514;30.724;2023-10-08T11:42:53;100413.72;;;14.45
42673;BMP280;28284;46.514;30.724;2023-10-08T11:45:22;100410.94;;;14.49
42673;BMP280;28284;46.514;30.724;2023-10-08T11:47:51;100420.63;;;14.53
42673;BMP280;28284;46.514;30.724;2023-10-08T11:50:36;100426.72;;;14.64
42673;BMP280;28284;46.514;30.724;2023-10-08T11:53:03;100430.94;;;14.72
42673;BMP280;28284;46.514;30.724;2023-10-08T11:55:30;100436.59;;;14.88
42673;BMP280;28284;46.514;30.724;2023-10-08T11:58:00;100437.59;;;15.01
42673;BMP280;28284;46.514;30.724;2023-10-08T12:00:25;100448.00;;;15.13
42673;BMP280;28284;46.514;30.724;2023-10-08T12:02:51;100451.38;;;15.20
42673;BMP280;28284;46.514;30.724;2023-10-08T12:05:20;100448.88;;;15.33
42673;BMP280;28284;46.514;30.724;2023-10-08T12:07:49;100449.56;;;15.40
42673;BMP280;28284;46.514;30.724;2023-10-08T12:10:16;100457.31;;;15.41
42673;BMP280;28284;46.514;30.724;2023-10-08T12:12:47;100468.91;;;15.49
42673;BMP280;28284;46.514;30.724;2023-10-08T12:15:12;100469.28;;;15.51
42673;BMP280;28284;46.514;30.724;2023-10-08T12:17:44;100466.06;;;15.59
42673;BMP280;28284;46.514;30.724;2023-10-08T12:20:18;100459.34;;;15.64
42673;BMP280;28284;46.514;30.724;2023-10-08T12:22:50;100467.09;;;15.69
42673;BMP280;28284;46.514;30.724;2023-10-08T12:25:16;100468.69;;;15.66
42673;BMP280;28284;46.514;30.724;2023-10-08T12:27:41;100476.03;;;15.69
42673;BMP280;28284;46.514;30.724;2023-10-08T12:30:06;100469.28;;;15.77
42673;BMP280;28284;46.514;30.724;2023-10-08T12:32:35;100472.03;;;15.77
42673;BMP280;28284;46.514;30.724;2023-10-08T12:35:03;100473.84;;;15.84
42673;BMP280;28284;46.514;30.724;2023-10-08T12:37:28;100481.66;;;15.85
42673;BMP280;28284;46.514;30.724;2023-10-08T12:39:55;100480.47;;;15.86
42673;BMP280;28284;46.514;30.724;2023-10-08T12:42:36;100488.75;;;15.79
42673;BMP280;28284;46.514;30.724;2023-10-08T12:45:04;100495.03;;;15.76
42673;BMP280;28284;46.514;30.724;2023-10-08T12:47:36;100488.91;;;15.69
42673;BMP280;28284;46.514;30.724;2023-10-08T12:50:02;100492.16;;;15.60
42673;BMP280;28284;46.514;30.724;2023-10-08T12:52:32;100487.78;;;15.40
42673;BMP280;28284;46.514;30.724;2023-10-08T12:54:59;100484.97;;;15.43
42673;BMP280;28284;46.514;30.724;2023-10-08T12:57:28;100473.75;;;15.38
42673;BMP280;28284;46.514;30.724;2023-10-08T12:59:58;100463.69;;;15.32
42673;BMP280;28284;46.514;30.724;2023-10-08T13:02:24;100466.88;;;15.30
42673;BMP280;28284;46.514;30.724;2023-10-08T13:04:53;100453.63;;;15.25
42673;BMP280;28284;46.514;30.724;2023-10-08T13:07:20;100455.25;;;15.23
42673;BMP280;28284;46.514;30.724;2023-10-08T13:09:47;100450.13;;;15.28
42673;BMP280;28284;46.514;30.724;2023-10-08T13:12:12;100443.31;;;15.39
42673;BMP280;28284;46.514;30.724;2023-10-08T13:14:39;100443.59;;;15.48
42673;BMP280;28284;46.514;30.724;2023-10-08T13:17:05;100443.50;;;15.55
42673;BMP280;28284;46.514;30.724;2023-10-08T13:19:35;100458.56;;;15.63
42673;BMP280;28284;46.514;30.724;2023-10-08T13:22:01;100455.34;;;15.72
42673;BMP280;28284;46.514;30.724;2023-10-08T13:24:26;100453.25;;;15.79
42673;BMP280;28284;46.514;30.724;2023-10-08T13:26:53;100453.22;;;15.83
42673;BMP280;28284;46.514;30.724;2023-10-08T13:29:19;100449.34;;;15.80
42673;BMP280;28284;46.514;30.724;2023-10-08T13:31:44;100441.72;;;15.68
42673;BMP280;28284;46.514;30.724;2023-10-08T13:34:11;100435.22;;;15.62
42673;BMP280;28284;46.514;30.724;2023-10-08T13:36:37;100435.25;;;15.59
42673;BMP280;28284;46.514;30.724;2023-10-08T13:39:04;100426.75;;;15.53
42673;BMP280;28284;46.514;30.724;2023-10-08T13:41:33;100433.41;;;15.52
42673;BMP280;28284;46.514;30.724;2023-10-08T13:43:59;100430.66;;;15.52
42673;BMP280;28284;46.514;30.724;2023-10-08T13:46:30;100426.41;;;15.51
42673;BMP280;28284;46.514;30.724;2023-10-08T13:48:56;100432.22;;;15.53
42673;BMP280;28284;46.514;30.724;2023-10-08T13:51:23;100434.25;;;15.49
42673;BMP280;28284;46.514;30.724;2023-10-08T13:53:53;100448.72;;;15.46
42673;BMP280;28284;46.514;30.724;2023-10-08T13:56:19;100446.00;;;15.46
42673;BMP280;28284;46.514;30.724;2023-10-08T13:58:45;100451.09;;;15.41
42673;BMP280;28284;46.514;30.724;2023-10-08T14:01:12;100458.47;;;15.44
42673;BMP280;28284;46.514;30.724;2023-10-08T14:03:48;100462.75;;;15.45
42673;BMP280;28284;46.514;30.724;2023-10-08T14:06:13;100456.91;;;15.46
42673;BMP280;28284;46.514;30.724;2023-10-08T14:08:39;100461.56;;;15.46
42673;BMP280;28284;46.514;30.724;2023-10-08T14:11:04;100468.22;;;15.41
42673;BMP280;28284;46.514;30.724;2023-10-08T14:13:30;100483.03;;;15.44
42673;BMP280;28284;46.514;30.724;2023-10-08T14:15:57;100482.63;;;15.45
42673;BMP280;28284;46.514;30.724;2023-10-08T14:18:23;100474.00;;;15.47
42673;BMP280;28284;46.514;30.724;2023-10-08T14:20:53;100483.41;;;15.46